Pagrindinis puslapis
METAR-TAF:

METAR-TAF

Oro uostai :

Dawadmi, Saudo Arabija

platuma: 24-26-59N, ilguma: 044-07-16E, Aukštis: 922 m

Dabartinis oras

Ataskaita buvo paskelbta 27 minutes, ne 11:00 UTC
Vėjas 5 kt iš Rytų/Šiaurės Rytų
Temperatūra 35°C
Drėgmė 14%
Slėgis 1017 hPa
Matomumas 10 km arba daugiau
Išsisklaidę debesys ne aukštis 4000 ft

METAR: OEDM 141100Z 06005KT 9999 SCT040 35/04 Q1017

Laikas: 14:27 (11:27 UTC)

Prognozė

Ataskaita buvo paskelbta 6 valandos ir 27 minutes, ne 05:00 UTC
Prognozė galioja nuo 14 metu 06 UTC su 14 metu 20 UTC
Vėjas 15 kt iš Pietų/Pietryčių
Matomumas: 7000 m
Mažai debesys ne aukštis 4000 ft
Tapsmas
nuo 14 metu 12 UTC su 14 metu 14 UTC
Vėjas 12 kt iš Rytų

TAF: OEDM 140500Z 1406/1420 16015KT 7000 FEW040 BECMG 1412/1414 09012KT

Orai ataskaitas ir orų prognozės (METAR, TAF).

turimą stotys yra geltonos ir raudonos taškus žemėlapyje.

Perkelti pele per norėdami pamatyti stoties vardą.

Tada spustelėkite, norėdami matyti oro stebėjimo ir prognozės.

Norėdami pakeisti žemėlapį: spustelėkite ant žalios mygtukų su juodo kryžiaus žemyn,; žalią mygtuką su brūkšneliu, jei norite nutolinti; arba žalių rodyklių gretimoms žemėlapius.


METAR-TAF: